Portada
METAR-TAF:

METAR-TAF

Aeropuertos :

Seward, Alaska, Estados Unidos

latitud: 60-07N, longitud: 149-27W, altitud: 9 m

Observación

El informe se hizo hace 27 minutos, a las 06:53 UTC
Viento 3 kt del norte
Temperatura 6°C
Humedad 87%
Presión 1020 hPa
Visibilidad: 16.1 km
Escasas nubes a una altura de 3200 ft
Cielo nuboso a una altura de 6000 ft

METAR: PAWD 300653Z AUTO 35003KT 10SM FEW032 BKN060 06/04 A3011 RMK AO2 RAE15 SLP194 P0000 T00610044 TSNO

Hora: 23:20 (07:20 UTC)


TAF: falta

Observaciones y pronósticos meteorológicos de más de 4000 aeropuertos (mensajes METAR y TAF).

Los puntos amarillos y rojos representan las estaciones disponibles.

Ponga el ratón en el punto deseado para ver el nombre de la estación.

Haga clic para ver las observaciones y los pronósticos meteorológicos.

Para cambiar el mapa : haga clic en los botones verdes con una cruz de color negro para hacer un zoom, en el botón verde con un guión para alejar o en las flechas verdes para mapas adyacentes.


METAR-TAF: